X  Fermer Données météorologiques d'aviation de Metar     LYNI Nis Airport
Température
11°C Température
8°C Point de rosée
82% Humidité



Vent
3 M/S
6 MPH
10 KM/H
5 KTS



310°
NO
Conditions actuelles

Plutôt nuageux Plutôt nuageux
Pression 1019.92 (hPa) - 30.12 (inHg)
Visibilité 6.2 (mile) - 10 (km)
Aéroport
Code de l'aéroport LYNI

Emplacement: Nis Airport
Distance: 63 (km)

Metar:
LYNI 040400Z 31005KT 280V350 9999 BKN030 11/08 Q1020 NOSIG

Temps: 04-10-2022 06:00 CEST